createdAt,value
2023-12-09T00:01:32.124Z,79.69
2023-12-09T00:04:00.489Z,79.64
2023-12-09T00:06:28.946Z,79.54
2023-12-09T00:08:57.395Z,79.58
2023-12-09T00:11:25.538Z,79.54
2023-12-09T00:13:53.650Z,79.40
2023-12-09T00:16:21.958Z,79.42
2023-12-09T00:18:50.359Z,79.40
2023-12-09T00:21:18.876Z,79.50
2023-12-09T00:23:48.417Z,79.41
2023-12-09T00:26:17.314Z,79.30
2023-12-09T00:28:46.662Z,79.33
2023-12-09T00:31:14.909Z,79.24
2023-12-09T00:33:43.425Z,79.18
2023-12-09T00:36:11.877Z,79.15
2023-12-09T00:38:41.199Z,78.99
2023-12-09T00:41:10.876Z,78.94
2023-12-09T00:43:39.109Z,78.86
2023-12-09T00:46:07.614Z,79.02
2023-12-09T00:48:35.934Z,78.78
2023-12-09T00:51:04.926Z,78.68
2023-12-09T00:53:33.135Z,78.77
2023-12-09T00:56:01.329Z,78.75
2023-12-09T00:58:29.524Z,78.74
2023-12-09T01:00:57.750Z,78.81
2023-12-09T01:03:26.006Z,78.61
2023-12-09T01:05:54.317Z,78.51
2023-12-09T01:08:22.522Z,78.66
2023-12-09T01:10:50.683Z,78.60
2023-12-09T01:13:19.166Z,78.61
2023-12-09T01:15:47.647Z,78.60
2023-12-09T01:18:15.945Z,78.60
2023-12-09T01:20:44.180Z,78.49
2023-12-09T01:23:12.854Z,78.44
2023-12-09T01:25:41.038Z,78.50
2023-12-09T01:28:09.221Z,78.43
2023-12-09T01:30:37.444Z,78.42
2023-12-09T01:33:05.962Z,78.34
2023-12-09T01:35:34.295Z,78.44
2023-12-09T01:38:02.913Z,78.38
2023-12-09T01:40:31.056Z,78.45
2023-12-09T01:42:59.236Z,78.44
2023-12-09T01:45:27.494Z,78.47
2023-12-09T01:47:55.864Z,78.63
2023-12-09T01:50:24.617Z,78.76
2023-12-09T01:52:53.368Z,78.90
2023-12-09T01:55:21.582Z,78.96
2023-12-09T01:57:49.845Z,78.98
2023-12-09T02:00:20.705Z,79.14
2023-12-09T02:02:50.262Z,79.20
2023-12-09T02:05:18.870Z,79.21
2023-12-09T02:07:47.098Z,79.28
2023-12-09T02:10:18.013Z,79.32
2023-12-09T02:12:55.503Z,79.43
2023-12-09T02:15:28.441Z,79.52
2023-12-09T02:18:06.018Z,79.50
2023-12-09T02:20:35.147Z,79.52
2023-12-09T02:23:09.850Z,79.60
2023-12-09T02:25:39.366Z,79.53
2023-12-09T02:28:15.019Z,79.70
2023-12-09T02:31:03.424Z,79.76
2023-12-09T02:33:33.223Z,79.77
2023-12-09T02:36:04.894Z,79.86
2023-12-09T02:38:35.738Z,79.88
2023-12-09T02:41:05.064Z,79.96
2023-12-09T02:43:33.245Z,80.00
2023-12-09T02:46:01.429Z,80.01
2023-12-09T02:48:29.930Z,80.13
2023-12-09T02:50:58.176Z,80.07
2023-12-09T02:53:26.337Z,79.95
2023-12-09T02:55:54.485Z,80.06
2023-12-09T02:58:22.634Z,80.00
2023-12-09T03:00:50.877Z,80.08
2023-12-09T03:03:19.133Z,80.01
2023-12-09T03:05:47.432Z,80.09
2023-12-09T03:08:15.684Z,80.17
2023-12-09T03:10:43.844Z,80.07
2023-12-09T03:13:13.014Z,79.93
2023-12-09T03:15:41.220Z,80.05
2023-12-09T03:18:09.588Z,79.98
2023-12-09T03:20:38.122Z,79.97
2023-12-09T03:23:06.273Z,79.96
2023-12-09T03:25:34.599Z,79.70
2023-12-09T03:28:02.772Z,79.81
2023-12-09T03:30:31.019Z,79.68
2023-12-09T03:32:59.378Z,79.56
2023-12-09T03:35:27.856Z,79.54
2023-12-09T03:37:55.976Z,79.54
2023-12-09T03:40:24.112Z,79.36
2023-12-09T03:42:52.203Z,79.32
2023-12-09T03:45:20.391Z,79.25
2023-12-09T03:47:48.690Z,79.11
2023-12-09T03:50:17.027Z,78.94
2023-12-09T03:52:45.192Z,78.90
2023-12-09T03:55:15.637Z,78.93
2023-12-09T03:57:45.614Z,78.85
2023-12-09T04:00:14.264Z,78.99
2023-12-09T04:02:42.410Z,78.84
2023-12-09T04:05:11.332Z,78.83
2023-12-09T04:07:39.599Z,78.78
2023-12-09T04:10:10.389Z,78.70
2023-12-09T04:12:38.747Z,78.80
2023-12-09T04:15:08.364Z,78.76
2023-12-09T04:17:37.626Z,78.62
2023-12-09T04:20:10.179Z,78.67
2023-12-09T04:22:41.525Z,78.61
2023-12-09T04:25:10.244Z,78.57
2023-12-09T04:27:38.462Z,78.73
2023-12-09T04:30:07.362Z,78.71
2023-12-09T04:32:36.491Z,78.72
2023-12-09T04:35:05.075Z,78.68
2023-12-09T04:37:33.547Z,78.70
2023-12-09T04:40:02.508Z,78.67
2023-12-09T04:42:30.903Z,78.75
2023-12-09T04:44:59.287Z,78.68
2023-12-09T04:47:27.965Z,78.69
2023-12-09T04:49:56.127Z,78.64
2023-12-09T04:52:24.835Z,78.64
2023-12-09T04:54:53.724Z,78.71
2023-12-09T04:57:22.188Z,78.60
2023-12-09T04:59:50.748Z,78.58
2023-12-09T05:02:21.637Z,78.58
2023-12-09T05:04:50.220Z,78.82
2023-12-09T05:07:18.397Z,78.68
2023-12-09T05:09:46.623Z,78.67
2023-12-09T05:12:15.637Z,78.71
2023-12-09T05:14:43.858Z,78.76
2023-12-09T05:17:12.779Z,78.71
2023-12-09T05:19:41.029Z,78.80
2023-12-09T05:22:09.323Z,78.76
2023-12-09T05:24:37.565Z,78.83
2023-12-09T05:27:06.100Z,78.85
2023-12-09T05:29:34.475Z,78.69
2023-12-09T05:32:03.048Z,78.79
2023-12-09T05:34:31.447Z,78.95
2023-12-09T05:36:59.741Z,78.73
2023-12-09T05:39:27.986Z,78.78
2023-12-09T05:41:56.203Z,78.87
2023-12-09T05:44:24.381Z,78.91
2023-12-09T05:46:52.765Z,78.78
2023-12-09T05:49:21.086Z,78.82
2023-12-09T05:51:49.427Z,78.86
2023-12-09T05:54:17.773Z,78.87
2023-12-09T05:56:52.031Z,78.79
2023-12-09T05:59:20.175Z,78.68
2023-12-09T06:01:48.321Z,78.75
2023-12-09T06:04:16.481Z,78.90
2023-12-09T06:06:44.792Z,78.84
2023-12-09T06:09:12.976Z,78.95
2023-12-09T06:11:41.218Z,78.98
2023-12-09T06:14:09.436Z,78.74
2023-12-09T06:16:37.611Z,78.82
2023-12-09T06:19:05.769Z,78.88
2023-12-09T06:21:34.099Z,79.06
2023-12-09T06:24:02.468Z,78.98
2023-12-09T06:26:30.696Z,78.95
2023-12-09T06:28:58.855Z,78.84
2023-12-09T06:31:26.991Z,78.78
2023-12-09T06:33:55.224Z,78.94
2023-12-09T06:36:23.525Z,79.09
2023-12-09T06:38:51.649Z,79.03
2023-12-09T06:41:20.103Z,79.01
2023-12-09T06:43:48.238Z,78.97
2023-12-09T06:46:16.473Z,78.94
2023-12-09T06:48:44.796Z,78.91
2023-12-09T06:51:17.455Z,79.05
2023-12-09T06:53:45.808Z,79.02
2023-12-09T06:56:23.988Z,78.99
2023-12-09T06:58:52.643Z,78.87
2023-12-09T07:01:25.137Z,78.90
2023-12-09T07:03:53.559Z,78.82
2023-12-09T07:06:23.579Z,78.71
2023-12-09T07:08:52.784Z,78.70
2023-12-09T07:11:22.414Z,78.83
2023-12-09T07:13:51.216Z,78.77
2023-12-09T07:16:19.948Z,78.75
2023-12-09T07:18:49.449Z,78.75
2023-12-09T07:21:18.662Z,78.73
2023-12-09T07:23:47.038Z,78.63
2023-12-09T07:26:15.578Z,78.67
2023-12-09T07:28:43.789Z,78.58
2023-12-09T07:31:12.775Z,78.84
2023-12-09T07:33:41.102Z,78.78
2023-12-09T07:36:09.843Z,78.70
2023-12-09T07:38:38.086Z,78.59
2023-12-09T07:41:06.513Z,78.79
2023-12-09T07:43:35.654Z,78.79
2023-12-09T07:46:05.195Z,78.76
2023-12-09T07:48:33.638Z,78.65
2023-12-09T07:51:02.611Z,78.72
2023-12-09T07:53:31.359Z,78.50
2023-12-09T07:55:59.644Z,78.69
2023-12-09T07:58:28.090Z,78.74
2023-12-09T08:00:56.529Z,78.70
2023-12-09T08:03:24.886Z,78.36
2023-12-09T08:05:53.292Z,78.60
2023-12-09T08:08:21.459Z,78.56
2023-12-09T08:10:49.693Z,78.58
2023-12-09T08:13:17.860Z,78.51
2023-12-09T08:15:46.079Z,78.51
2023-12-09T08:18:14.376Z,78.43
2023-12-09T08:20:42.812Z,78.52
2023-12-09T08:23:10.996Z,78.48
2023-12-09T08:25:39.309Z,78.35
2023-12-09T08:28:08.583Z,78.29
2023-12-09T08:30:37.095Z,78.28
2023-12-09T08:33:05.510Z,78.30
2023-12-09T08:35:34.100Z,78.20
2023-12-09T08:38:02.395Z,78.16
2023-12-09T08:40:30.555Z,78.13
2023-12-09T08:42:58.844Z,78.04
2023-12-09T08:45:27.022Z,77.89
2023-12-09T08:47:55.301Z,78.03
2023-12-09T08:50:25.530Z,78.08
2023-12-09T08:52:54.624Z,77.98
2023-12-09T08:55:24.020Z,77.97
2023-12-09T08:57:53.755Z,77.96
2023-12-09T09:00:25.109Z,77.94
2023-12-09T09:02:57.218Z,77.93
2023-12-09T09:05:25.876Z,77.84
2023-12-09T09:07:54.161Z,77.81
2023-12-09T09:10:24.207Z,77.69
2023-12-09T09:12:52.634Z,77.63
2023-12-09T09:15:22.127Z,77.52
2023-12-09T09:17:50.772Z,77.43
2023-12-09T09:20:19.228Z,77.51
2023-12-09T09:22:48.594Z,77.48
2023-12-09T09:25:17.295Z,77.35
2023-12-09T09:27:46.009Z,77.42
2023-12-09T09:30:15.081Z,77.39
2023-12-09T09:32:43.490Z,76.95
2023-12-09T09:35:11.857Z,77.12
2023-12-09T09:37:39.950Z,77.36
2023-12-09T09:40:08.740Z,77.06
2023-12-09T09:43:01.715Z,77.11
2023-12-09T09:45:32.172Z,76.97
2023-12-09T09:48:07.407Z,76.90
2023-12-09T09:50:43.544Z,76.78
2023-12-09T09:53:14.094Z,76.96
2023-12-09T09:55:43.317Z,76.74
2023-12-09T09:58:14.645Z,76.50
2023-12-09T10:00:43.256Z,76.63
2023-12-09T10:03:11.715Z,76.63
2023-12-09T10:05:40.030Z,76.49
2023-12-09T10:08:08.199Z,76.25
2023-12-09T10:10:36.557Z,76.26
2023-12-09T10:13:05.074Z,76.22
2023-12-09T10:15:33.632Z,76.19
2023-12-09T10:18:05.084Z,76.06
2023-12-09T10:20:36.389Z,76.01
2023-12-09T10:23:04.923Z,76.00
2023-12-09T10:25:33.126Z,75.86
2023-12-09T10:28:01.347Z,75.89
2023-12-09T10:30:30.052Z,75.79
2023-12-09T10:33:00.635Z,75.51
2023-12-09T10:35:29.649Z,75.65
2023-12-09T10:38:02.207Z,75.86
2023-12-09T10:40:30.402Z,75.91
2023-12-09T10:42:58.720Z,75.79
2023-12-09T10:45:26.976Z,75.94
2023-12-09T10:47:55.314Z,75.82
2023-12-09T10:50:23.996Z,75.77
2023-12-09T10:52:52.130Z,75.60
2023-12-09T10:55:20.890Z,75.33
2023-12-09T10:57:51.597Z,75.38
2023-12-09T11:00:20.487Z,75.17
2023-12-09T11:02:49.293Z,75.26
2023-12-09T11:05:19.369Z,75.05
2023-12-09T11:07:48.482Z,74.99
2023-12-09T11:10:17.452Z,75.28
2023-12-09T11:12:49.270Z,75.21
2023-12-09T11:15:23.547Z,75.05
2023-12-09T11:17:55.169Z,75.08
2023-12-09T11:20:26.343Z,75.29
2023-12-09T11:22:54.765Z,75.18
2023-12-09T11:25:26.617Z,75.05
2023-12-09T11:27:55.773Z,75.02
2023-12-09T11:30:38.338Z,75.13
2023-12-09T11:33:06.734Z,75.03
2023-12-09T11:35:36.510Z,75.03
2023-12-09T11:38:07.476Z,75.05
2023-12-09T11:40:35.848Z,74.71
2023-12-09T11:43:04.899Z,74.57
2023-12-09T11:45:33.432Z,74.49
2023-12-09T11:48:04.878Z,74.44
2023-12-09T11:50:33.394Z,74.36
2023-12-09T11:53:01.519Z,74.31
2023-12-09T11:55:30.624Z,74.22
2023-12-09T11:57:58.918Z,74.19
2023-12-09T12:00:27.618Z,74.28
2023-12-09T12:02:56.284Z,74.44
2023-12-09T12:05:24.711Z,74.17
2023-12-09T12:07:53.364Z,74.26
2023-12-09T12:10:21.909Z,74.07
2023-12-09T12:12:50.378Z,74.06
2023-12-09T12:15:18.972Z,73.99
2023-12-09T12:17:48.258Z,73.79
2023-12-09T12:20:16.811Z,73.65
2023-12-09T12:22:45.268Z,73.35
2023-12-09T12:25:13.660Z,73.18
2023-12-09T12:27:46.443Z,73.39
2023-12-09T12:30:15.637Z,73.30
2023-12-09T12:32:44.841Z,73.17
2023-12-09T12:35:13.745Z,73.05
2023-12-09T12:37:42.178Z,73.01
2023-12-09T12:40:11.394Z,73.20
2023-12-09T12:42:40.473Z,73.17
2023-12-09T12:45:20.192Z,73.01
2023-12-09T12:47:49.257Z,72.92
2023-12-09T12:50:18.752Z,73.04
2023-12-09T12:52:47.122Z,73.23
2023-12-09T12:55:15.440Z,73.32
2023-12-09T12:57:45.253Z,73.27
2023-12-09T13:00:15.933Z,73.19
2023-12-09T13:02:44.900Z,73.30
2023-12-09T13:05:13.406Z,73.28
2023-12-09T13:07:42.088Z,73.29
2023-12-09T13:10:11.005Z,73.22
2023-12-09T13:12:39.356Z,73.14
2023-12-09T13:15:08.562Z,73.28
2023-12-09T13:17:37.753Z,73.17
2023-12-09T13:20:06.850Z,73.05
2023-12-09T13:22:35.302Z,73.01
2023-12-09T13:25:08.542Z,73.13
2023-12-09T13:27:38.380Z,73.21
2023-12-09T13:30:08.362Z,73.31
2023-12-09T13:32:37.827Z,73.23
2023-12-09T13:35:08.055Z,73.36
2023-12-09T13:37:38.833Z,73.15
2023-12-09T13:40:08.902Z,73.15
2023-12-09T13:42:37.472Z,73.14
2023-12-09T13:45:07.045Z,73.11
2023-12-09T13:47:35.471Z,73.12
2023-12-09T13:50:06.016Z,73.09
2023-12-09T13:52:38.025Z,73.14
2023-12-09T13:55:07.051Z,73.00
2023-12-09T13:57:35.383Z,73.12
2023-12-09T14:00:09.297Z,73.16
2023-12-09T14:02:41.157Z,73.19
2023-12-09T14:05:11.565Z,73.22
2023-12-09T14:07:42.134Z,73.25
2023-12-09T14:10:11.016Z,73.28
2023-12-09T14:12:41.653Z,73.17
2023-12-09T14:15:10.954Z,73.23
2023-12-09T14:17:45.176Z,73.31
2023-12-09T14:20:16.825Z,73.31
2023-12-09T14:22:47.434Z,73.45
2023-12-09T14:25:16.065Z,73.55
2023-12-09T14:27:44.963Z,73.58
2023-12-09T14:30:14.045Z,73.47
2023-12-09T14:32:46.387Z,73.43
2023-12-09T14:35:16.113Z,73.60
2023-12-09T14:37:49.431Z,73.72
2023-12-09T14:40:18.545Z,73.57
2023-12-09T14:42:47.141Z,73.73
2023-12-09T14:45:15.902Z,73.55
2023-12-09T14:47:53.813Z,73.68
2023-12-09T14:50:28.018Z,73.72
2023-12-09T14:52:56.512Z,73.83
2023-12-09T14:55:24.781Z,73.81
2023-12-09T14:57:53.680Z,74.09
2023-12-09T15:00:22.170Z,74.12
2023-12-09T15:02:50.654Z,74.12
2023-12-09T15:05:19.023Z,74.13
2023-12-09T15:07:47.583Z,74.16
2023-12-09T15:10:16.910Z,74.18
2023-12-09T15:12:45.251Z,74.21
2023-12-09T15:15:13.797Z,74.36
2023-12-09T15:17:42.503Z,74.35
2023-12-09T15:20:11.549Z,74.43
2023-12-09T15:22:40.755Z,74.55
2023-12-09T15:25:09.914Z,74.66
2023-12-09T15:27:39.073Z,74.79
2023-12-09T15:30:09.376Z,74.77
2023-12-09T15:32:40.680Z,74.98
2023-12-09T15:35:09.815Z,74.99
2023-12-09T15:37:38.756Z,75.01
2023-12-09T15:40:12.067Z,75.12
2023-12-09T15:42:40.559Z,75.21
2023-12-09T15:45:10.011Z,75.11
2023-12-09T15:47:38.437Z,75.13
2023-12-09T15:50:07.616Z,75.22
2023-12-09T15:52:36.065Z,75.38
2023-12-09T15:55:05.212Z,75.35
2023-12-09T15:57:33.592Z,75.45
2023-12-09T16:00:02.023Z,75.50
2023-12-09T16:02:34.352Z,75.56
2023-12-09T16:05:02.969Z,75.64
2023-12-09T16:07:31.521Z,75.42
2023-12-09T16:09:59.850Z,75.40
2023-12-09T16:12:28.653Z,75.69
2023-12-09T16:14:57.181Z,75.60
2023-12-09T16:17:26.386Z,75.75
2023-12-09T16:19:54.838Z,75.83
2023-12-09T16:22:23.136Z,75.84
2023-12-09T16:24:52.038Z,75.83
2023-12-09T16:27:20.518Z,76.02
2023-12-09T16:29:48.967Z,76.15
2023-12-09T16:32:17.387Z,76.08
2023-12-09T16:34:45.599Z,75.96
2023-12-09T16:37:14.044Z,76.25
2023-12-09T16:39:42.515Z,76.16
2023-12-09T16:42:10.997Z,76.05
2023-12-09T16:44:39.284Z,76.14
2023-12-09T16:47:07.475Z,76.20
2023-12-09T16:49:35.710Z,76.39
2023-12-09T16:52:05.025Z,76.41
2023-12-09T16:54:33.360Z,76.29
2023-12-09T16:57:02.352Z,76.48
2023-12-09T16:59:30.914Z,76.72
2023-12-09T17:02:00.493Z,76.68
2023-12-09T17:04:29.085Z,76.71
2023-12-09T17:06:57.581Z,76.75
2023-12-09T17:09:26.484Z,76.92
2023-12-09T17:11:54.874Z,76.87
2023-12-09T17:14:23.140Z,77.60
2023-12-09T17:16:51.380Z,78.36
2023-12-09T17:19:20.004Z,78.35
2023-12-09T17:21:48.237Z,78.15
2023-12-09T17:24:16.601Z,77.78
2023-12-09T17:26:44.731Z,77.94
2023-12-09T17:29:13.150Z,77.75
2023-12-09T17:31:43.601Z,77.72
2023-12-09T17:34:14.003Z,77.74
2023-12-09T17:36:42.358Z,77.61
2023-12-09T17:39:11.480Z,77.56
2023-12-09T17:41:40.037Z,77.59
2023-12-09T17:44:08.266Z,77.58
2023-12-09T17:46:36.384Z,77.66
2023-12-09T17:49:05.871Z,77.72
2023-12-09T17:51:34.197Z,77.76
2023-12-09T17:54:03.343Z,77.85
2023-12-09T17:56:31.693Z,77.78
2023-12-09T17:58:59.914Z,77.90
2023-12-09T18:01:29.236Z,77.93
2023-12-09T18:04:00.917Z,77.89
2023-12-09T18:06:29.786Z,77.95
2023-12-09T18:08:58.067Z,77.90
2023-12-09T18:11:26.233Z,78.14
2023-12-09T18:13:54.973Z,78.11
2023-12-09T18:16:23.225Z,77.97
2023-12-09T18:18:51.603Z,78.18
2023-12-09T18:21:19.877Z,78.08
2023-12-09T18:23:47.994Z,78.13
2023-12-09T18:26:17.480Z,78.29
2023-12-09T18:28:46.518Z,78.45
2023-12-09T18:31:15.264Z,78.34
2023-12-09T18:33:43.516Z,78.39
2023-12-09T18:36:11.927Z,78.37
2023-12-09T18:38:40.197Z,78.32
2023-12-09T18:41:08.293Z,78.38
2023-12-09T18:43:36.878Z,78.30
2023-12-09T18:46:05.562Z,78.24
2023-12-09T18:48:33.847Z,78.34
2023-12-09T18:51:03.026Z,78.42
2023-12-09T18:53:31.224Z,78.54
2023-12-09T18:56:01.941Z,78.48
2023-12-09T18:58:30.062Z,78.57
2023-12-09T19:01:05.096Z,78.62
2023-12-09T19:03:39.133Z,78.70
2023-12-09T19:06:10.064Z,78.81
2023-12-09T19:08:39.028Z,78.85
2023-12-09T19:11:07.616Z,78.76
2023-12-09T19:13:35.956Z,78.95
2023-12-09T19:16:04.565Z,79.02
2023-12-09T19:18:32.994Z,79.25
2023-12-09T19:21:01.321Z,79.30
2023-12-09T19:23:29.454Z,79.34
2023-12-09T19:25:58.028Z,79.30
2023-12-09T19:28:27.049Z,79.51
2023-12-09T19:30:56.453Z,79.75
2023-12-09T19:33:25.005Z,79.62
2023-12-09T19:35:53.633Z,79.49
2023-12-09T19:38:21.823Z,79.69
2023-12-09T19:40:50.049Z,79.53
2023-12-09T19:43:18.334Z,79.44
2023-12-09T19:45:46.503Z,79.36
2023-12-09T19:48:15.328Z,79.33
2023-12-09T19:50:45.077Z,79.39
2023-12-09T19:53:15.771Z,79.37
2023-12-09T19:55:43.928Z,79.27
2023-12-09T19:58:12.328Z,79.27
2023-12-09T20:00:42.244Z,79.21
2023-12-09T20:03:13.811Z,79.14
2023-12-09T20:05:42.121Z,79.16
2023-12-09T20:08:10.292Z,79.25
2023-12-09T20:10:38.568Z,79.30
2023-12-09T20:13:07.497Z,79.23
2023-12-09T20:15:35.986Z,79.31
2023-12-09T20:18:04.429Z,79.42
2023-12-09T20:20:33.026Z,79.30
2023-12-09T20:23:01.266Z,79.43
2023-12-09T20:25:29.511Z,79.45
2023-12-09T20:27:58.714Z,79.57
2023-12-09T20:30:27.111Z,79.46
2023-12-09T20:32:55.456Z,79.49
2023-12-09T20:35:25.472Z,79.49
2023-12-09T20:37:53.770Z,79.61
2023-12-09T20:40:21.997Z,79.56
2023-12-09T20:42:50.330Z,79.60
2023-12-09T20:45:19.594Z,79.64
2023-12-09T20:47:48.186Z,79.68
2023-12-09T20:50:18.158Z,79.69
2023-12-09T20:52:46.424Z,79.63
2023-12-09T20:55:14.896Z,79.74
2023-12-09T20:57:44.274Z,79.65
2023-12-09T21:00:13.706Z,79.65
2023-12-09T21:02:42.312Z,79.78
2023-12-09T21:05:10.726Z,79.65
2023-12-09T21:07:38.975Z,79.65
2023-12-09T21:10:07.613Z,79.74
2023-12-09T21:12:35.969Z,79.81
2023-12-09T21:15:05.375Z,79.79
2023-12-09T21:17:33.599Z,79.78
2023-12-09T21:20:01.976Z,79.83
2023-12-09T21:22:30.388Z,79.71
2023-12-09T21:24:59.052Z,79.66
2023-12-09T21:27:27.259Z,79.77
2023-12-09T21:29:55.657Z,79.76
2023-12-09T21:32:23.765Z,79.83
2023-12-09T21:34:52.052Z,79.76
2023-12-09T21:37:20.217Z,79.81
2023-12-09T21:39:48.386Z,79.84
2023-12-09T21:42:16.653Z,79.97
2023-12-09T21:44:46.109Z,79.92
2023-12-09T21:47:14.402Z,79.79
2023-12-09T21:49:42.753Z,79.82
2023-12-09T21:52:11.210Z,79.84
2023-12-09T21:54:39.961Z,79.86
2023-12-09T21:57:08.222Z,79.85
2023-12-09T21:59:36.413Z,79.91
2023-12-09T22:02:05.126Z,79.97
2023-12-09T22:04:34.451Z,79.91
2023-12-09T22:07:02.752Z,80.13
2023-12-09T22:09:31.025Z,80.07
2023-12-09T22:11:59.196Z,80.00
2023-12-09T22:14:27.380Z,80.17
2023-12-09T22:16:55.784Z,80.17
2023-12-09T22:19:25.592Z,80.14
2023-12-09T22:21:53.982Z,80.24
2023-12-09T22:24:22.264Z,80.18
2023-12-09T22:26:50.723Z,80.25
2023-12-09T22:29:19.026Z,80.22
2023-12-09T22:31:47.603Z,80.14
2023-12-09T22:34:15.870Z,80.12
2023-12-09T22:36:44.127Z,80.16
2023-12-09T22:39:13.915Z,80.16
2023-12-09T22:41:42.308Z,80.07
2023-12-09T22:44:10.509Z,80.04
2023-12-09T22:46:39.072Z,80.12
2023-12-09T22:49:07.628Z,80.03
2023-12-09T22:51:37.289Z,79.94
2023-12-09T22:54:05.931Z,80.08
2023-12-09T22:56:34.149Z,79.99
2023-12-09T22:59:02.452Z,80.09
2023-12-09T23:01:34.087Z,80.01
2023-12-09T23:04:02.839Z,79.95
2023-12-09T23:06:31.303Z,79.96
2023-12-09T23:08:59.616Z,79.99
2023-12-09T23:11:27.820Z,80.01
2023-12-09T23:13:55.987Z,80.04
2023-12-09T23:16:24.212Z,80.03
2023-12-09T23:18:52.727Z,80.01
2023-12-09T23:21:21.047Z,79.91
2023-12-09T23:23:49.500Z,79.92
2023-12-09T23:26:17.841Z,79.96
2023-12-09T23:28:46.026Z,80.12
2023-12-09T23:31:16.498Z,80.08
2023-12-09T23:33:48.232Z,80.18
2023-12-09T23:36:16.932Z,79.98
2023-12-09T23:38:45.145Z,80.08
2023-12-09T23:41:17.381Z,79.98
2023-12-09T23:43:45.800Z,80.03
2023-12-09T23:46:17.312Z,80.05
2023-12-09T23:48:45.776Z,79.89
2023-12-09T23:51:14.093Z,79.86
2023-12-09T23:53:42.247Z,79.83
2023-12-09T23:56:10.552Z,79.95
2023-12-09T23:58:38.929Z,80.03
